createdAt,value
2022-09-15T00:01:31.885Z,16.44
2022-09-15T00:04:00.204Z,16.40
2022-09-15T00:06:28.524Z,16.36
2022-09-15T00:08:59.385Z,16.35
2022-09-15T00:11:31.180Z,16.35
2022-09-15T00:14:02.231Z,16.32
2022-09-15T00:16:32.231Z,16.31
2022-09-15T00:19:01.806Z,16.30
2022-09-15T00:21:32.185Z,16.32
2022-09-15T00:24:03.593Z,16.30
2022-09-15T00:26:33.236Z,16.28
2022-09-15T00:29:02.221Z,16.31
2022-09-15T00:31:32.179Z,16.38
2022-09-15T00:34:03.931Z,16.47
2022-09-15T00:36:32.667Z,16.53
2022-09-15T00:39:02.735Z,16.60
2022-09-15T00:41:31.210Z,16.65
2022-09-15T00:44:01.045Z,16.69
2022-09-15T00:46:32.477Z,16.70
2022-09-15T00:49:10.853Z,16.71
2022-09-15T00:51:42.905Z,16.70
2022-09-15T00:54:16.731Z,16.68
2022-09-15T00:56:48.062Z,16.61
2022-09-15T00:59:19.814Z,16.58
2022-09-15T01:01:51.608Z,16.49
2022-09-15T01:04:20.191Z,16.46
2022-09-15T01:06:51.869Z,16.41
2022-09-15T01:09:29.523Z,16.36
2022-09-15T01:11:58.198Z,16.32
2022-09-15T01:14:26.674Z,16.28
2022-09-15T01:17:01.688Z,16.24
2022-09-15T01:20:06.183Z,16.19
2022-09-15T01:22:42.371Z,16.23
2022-09-15T01:25:27.518Z,16.27
2022-09-15T01:28:24.426Z,16.27
2022-09-15T01:31:00.592Z,16.32
2022-09-15T01:33:34.159Z,16.35
2022-09-15T01:36:12.857Z,16.41
2022-09-15T01:38:51.734Z,16.50
2022-09-15T01:41:26.051Z,16.55
2022-09-15T01:44:13.515Z,16.63
2022-09-15T01:46:47.758Z,16.66
2022-09-15T01:49:20.767Z,16.68
2022-09-15T01:51:52.470Z,16.72
2022-09-15T01:54:25.526Z,16.71
2022-09-15T01:56:54.164Z,16.72
2022-09-15T01:59:22.615Z,16.77
2022-09-15T02:01:59.287Z,16.79
2022-09-15T02:04:32.205Z,16.80
2022-09-15T02:07:07.491Z,16.82
2022-09-15T02:09:39.847Z,16.81
2022-09-15T02:12:12.431Z,16.62
2022-09-15T02:14:50.380Z,16.72
2022-09-15T02:17:22.146Z,16.75
2022-09-15T02:19:53.870Z,16.77
2022-09-15T02:22:27.949Z,16.73
2022-09-15T02:25:02.280Z,16.69
2022-09-15T02:27:33.882Z,16.64
2022-09-15T02:30:06.663Z,16.56
2022-09-15T02:32:39.066Z,16.48
2022-09-15T02:35:08.267Z,16.21
2022-09-15T02:37:38.963Z,16.28
2022-09-15T02:40:08.703Z,16.25
2022-09-15T02:42:37.381Z,16.20
2022-09-15T02:45:06.260Z,16.14
2022-09-15T02:47:35.883Z,16.12
2022-09-15T02:50:04.129Z,16.06
2022-09-15T02:52:32.275Z,16.04
2022-09-15T02:55:01.023Z,16.02
2022-09-15T02:57:29.204Z,15.98
2022-09-15T03:00:17.386Z,15.94
2022-09-15T03:02:50.461Z,15.89
2022-09-15T03:05:21.405Z,15.88
2022-09-15T03:07:50.030Z,15.84
2022-09-15T03:10:18.651Z,15.84
2022-09-15T03:12:49.402Z,15.81
2022-09-15T03:15:20.174Z,15.76
2022-09-15T03:17:50.583Z,15.74
2022-09-15T03:20:21.635Z,15.72
2022-09-15T03:22:50.921Z,15.71
2022-09-15T03:25:20.866Z,15.71
2022-09-15T03:27:49.208Z,15.67
2022-09-15T03:30:17.862Z,15.65
2022-09-15T03:32:46.347Z,15.63
2022-09-15T03:35:16.281Z,15.62
2022-09-15T03:37:44.837Z,15.60
2022-09-15T03:40:13.142Z,15.58
2022-09-15T03:42:41.602Z,15.54
2022-09-15T03:45:10.889Z,15.52
2022-09-15T03:47:39.335Z,15.49
2022-09-15T03:50:08.080Z,15.47
2022-09-15T03:52:37.679Z,15.48
2022-09-15T03:55:06.711Z,15.47
2022-09-15T03:57:34.999Z,15.47
2022-09-15T04:00:04.266Z,15.51
2022-09-15T04:02:33.028Z,15.50
2022-09-15T04:05:02.748Z,15.52
2022-09-15T04:07:31.318Z,15.51
2022-09-15T04:10:01.653Z,15.56
2022-09-15T04:12:32.435Z,15.57
2022-09-15T04:15:01.255Z,15.59
2022-09-15T04:17:29.591Z,15.64
2022-09-15T04:19:57.827Z,15.66
2022-09-15T04:22:26.091Z,15.66
2022-09-15T04:24:54.605Z,15.68
2022-09-15T04:27:24.294Z,15.71
2022-09-15T04:29:52.982Z,15.75
2022-09-15T04:32:22.694Z,15.79
2022-09-15T04:34:51.217Z,15.80
2022-09-15T04:37:19.624Z,15.81
2022-09-15T04:39:48.531Z,15.81
2022-09-15T04:42:17.255Z,15.81
2022-09-15T04:44:47.110Z,15.84
2022-09-15T04:47:15.269Z,15.84
2022-09-15T04:49:43.558Z,15.86
2022-09-15T04:52:11.791Z,15.85
2022-09-15T04:54:39.924Z,15.86
2022-09-15T04:57:08.191Z,15.88
2022-09-15T04:59:36.618Z,15.86
2022-09-15T05:02:06.354Z,15.89
2022-09-15T05:04:35.108Z,15.89
2022-09-15T05:07:03.447Z,15.89
2022-09-15T05:09:31.615Z,15.90
2022-09-15T05:12:00.096Z,15.91
2022-09-15T05:14:28.301Z,15.92
2022-09-15T05:16:56.425Z,15.92
2022-09-15T05:19:26.382Z,15.92
2022-09-15T05:21:54.853Z,15.92
2022-09-15T05:24:23.346Z,15.94
2022-09-15T05:26:51.560Z,16.00
2022-09-15T05:29:19.686Z,15.98
2022-09-15T05:31:48.267Z,15.98
2022-09-15T05:34:16.802Z,15.95
2022-09-15T05:36:46.363Z,15.99
2022-09-15T05:39:14.891Z,15.95
2022-09-15T05:41:43.028Z,15.94
2022-09-15T05:44:11.611Z,15.93
2022-09-15T05:46:40.888Z,15.93
2022-09-15T05:49:09.173Z,15.92
2022-09-15T05:51:37.868Z,15.91
2022-09-15T05:54:07.756Z,15.92
2022-09-15T05:56:35.931Z,15.93
2022-09-15T05:59:05.270Z,15.93
2022-09-15T06:01:33.667Z,15.94
2022-09-15T06:04:02.146Z,15.92
2022-09-15T06:06:33.333Z,15.92
2022-09-15T06:09:01.836Z,15.92
2022-09-15T06:11:33.872Z,15.89
2022-09-15T06:14:06.055Z,15.91
2022-09-15T06:16:36.380Z,15.95
2022-09-15T06:19:04.873Z,15.96
2022-09-15T06:21:34.243Z,15.98
2022-09-15T06:24:04.628Z,16.00
2022-09-15T06:26:35.063Z,16.03
2022-09-15T06:29:05.989Z,16.07
2022-09-15T06:31:35.796Z,16.13
2022-09-15T06:34:05.519Z,16.19
2022-09-15T06:36:34.006Z,16.24
2022-09-15T06:39:02.924Z,16.28
2022-09-15T06:41:52.587Z,16.33
2022-09-15T06:44:20.967Z,16.46
2022-09-15T06:46:49.916Z,16.62
2022-09-15T06:49:18.205Z,16.95
2022-09-15T06:51:46.667Z,17.07
2022-09-15T06:54:16.258Z,17.02
2022-09-15T06:56:45.609Z,16.94
2022-09-15T06:59:14.571Z,16.89
2022-09-15T07:01:45.033Z,16.85
2022-09-15T07:04:13.287Z,16.84
2022-09-15T07:06:41.473Z,17.18
2022-09-15T07:09:09.639Z,17.92
2022-09-15T07:11:37.818Z,18.08
2022-09-15T07:14:06.490Z,18.52
2022-09-15T07:16:35.074Z,19.00
2022-09-15T07:19:06.056Z,19.94
2022-09-15T07:21:35.724Z,20.19
2022-09-15T07:24:07.169Z,20.10
2022-09-15T07:26:36.217Z,20.73
2022-09-15T07:29:06.844Z,21.36
2022-09-15T07:31:37.863Z,21.62
2022-09-15T07:34:08.581Z,21.11
2022-09-15T07:36:37.135Z,21.32
2022-09-15T07:39:06.860Z,21.71
2022-09-15T07:41:36.804Z,22.10
2022-09-15T07:44:08.132Z,21.71
2022-09-15T07:46:36.549Z,21.86
2022-09-15T07:49:06.633Z,22.96
2022-09-15T07:51:36.252Z,22.88
2022-09-15T07:54:04.927Z,22.42
2022-09-15T07:56:33.417Z,21.98
2022-09-15T07:59:01.597Z,21.44
2022-09-15T08:01:29.969Z,21.18
2022-09-15T08:03:58.199Z,20.93
2022-09-15T08:06:27.814Z,20.89
2022-09-15T08:09:00.776Z,20.47
2022-09-15T08:11:30.223Z,19.94
2022-09-15T08:14:02.873Z,19.57
2022-09-15T08:16:31.160Z,19.50
2022-09-15T08:19:00.333Z,19.52
2022-09-15T08:21:29.235Z,19.59
2022-09-15T08:24:01.397Z,19.71
2022-09-15T08:26:29.915Z,19.70
2022-09-15T08:28:59.322Z,19.96
2022-09-15T08:31:27.858Z,20.01
2022-09-15T08:33:57.227Z,19.93
2022-09-15T08:36:28.074Z,19.92
2022-09-15T08:38:58.442Z,19.97
2022-09-15T08:41:30.766Z,20.11
2022-09-15T08:44:08.408Z,20.07
2022-09-15T08:46:41.964Z,19.94
2022-09-15T08:49:40.992Z,20.27
2022-09-15T08:52:17.277Z,20.67
2022-09-15T08:54:47.215Z,21.46
2022-09-15T08:57:21.423Z,22.53
2022-09-15T08:59:49.676Z,23.23
2022-09-15T09:02:56.186Z,23.10
2022-09-15T09:05:47.267Z,22.55
2022-09-15T09:08:47.789Z,22.03
2022-09-15T09:11:24.162Z,21.47
2022-09-15T09:14:03.685Z,21.18
2022-09-15T09:16:41.945Z,21.24
2022-09-15T09:19:21.370Z,21.05
2022-09-15T09:21:55.441Z,20.84
2022-09-15T09:24:34.346Z,20.92
2022-09-15T09:27:05.336Z,21.00
2022-09-15T09:29:40.212Z,20.78
2022-09-15T09:32:21.676Z,20.78
2022-09-15T09:35:00.041Z,21.14
2022-09-15T09:37:28.957Z,21.60
2022-09-15T09:39:57.361Z,21.50
2022-09-15T09:42:31.745Z,21.72
2022-09-15T09:45:00.112Z,22.02
2022-09-15T09:47:30.552Z,22.47
2022-09-15T09:49:59.907Z,22.52
2022-09-15T09:52:36.271Z,22.76
2022-09-15T09:55:21.679Z,22.73
2022-09-15T09:57:52.187Z,22.74
2022-09-15T10:00:33.658Z,22.46
2022-09-15T10:03:11.817Z,22.51
2022-09-15T10:05:40.272Z,22.84
2022-09-15T10:08:08.697Z,23.28
2022-09-15T10:10:37.231Z,23.45
2022-09-15T10:13:06.896Z,24.04
2022-09-15T10:15:37.594Z,24.58
2022-09-15T10:18:05.895Z,24.74
2022-09-15T10:20:47.813Z,24.58
2022-09-15T10:23:26.761Z,24.34
2022-09-15T10:25:59.987Z,24.02
2022-09-15T10:28:30.331Z,23.87
2022-09-15T10:31:07.769Z,23.65
2022-09-15T10:33:37.250Z,23.65
2022-09-15T10:36:08.896Z,23.48
2022-09-15T10:38:44.103Z,23.58
2022-09-15T10:41:23.394Z,23.71
2022-09-15T10:44:19.462Z,23.64
2022-09-15T10:46:56.522Z,23.58
2022-09-15T10:49:42.067Z,23.58
2022-09-15T10:52:19.093Z,23.32
2022-09-15T10:55:09.094Z,23.13
2022-09-15T10:57:58.589Z,23.31
2022-09-15T11:00:35.271Z,23.56
2022-09-15T11:03:38.753Z,23.71
2022-09-15T11:06:18.431Z,23.67
2022-09-15T11:09:08.195Z,23.39
2022-09-15T11:11:50.101Z,23.28
2022-09-15T11:14:33.342Z,23.18
2022-09-15T11:17:14.813Z,22.87
2022-09-15T11:19:57.933Z,22.50
2022-09-15T11:22:31.683Z,22.39
2022-09-15T11:25:03.838Z,22.81
2022-09-15T11:27:34.623Z,22.90
2022-09-15T11:30:07.533Z,23.24
2022-09-15T11:32:42.609Z,23.56
2022-09-15T11:35:43.639Z,23.38
2022-09-15T11:38:26.640Z,23.17
2022-09-15T11:40:59.942Z,23.23
2022-09-15T11:43:36.083Z,23.42
2022-09-15T11:46:10.829Z,23.75
2022-09-15T11:48:46.491Z,23.66
2022-09-15T11:51:21.595Z,23.52
2022-09-15T11:53:56.991Z,23.68
2022-09-15T11:56:30.502Z,23.63
2022-09-15T11:59:09.362Z,23.59
2022-09-15T12:01:46.997Z,23.56
2022-09-15T12:04:23.149Z,23.75
2022-09-15T12:09:31.653Z,24.08
2022-09-15T12:12:05.848Z,23.75
2022-09-15T12:14:36.827Z,23.49
2022-09-15T12:17:08.295Z,23.64
2022-09-15T12:19:49.991Z,23.47
2022-09-15T12:22:24.669Z,23.45
2022-09-15T12:25:01.282Z,23.48
2022-09-15T12:27:30.329Z,23.23
2022-09-15T12:30:00.817Z,23.16
2022-09-15T12:32:30.582Z,23.08
2022-09-15T12:35:31.170Z,23.18
2022-09-15T12:38:01.486Z,23.24
2022-09-15T12:40:36.582Z,22.98
2022-09-15T12:43:20.157Z,22.96
2022-09-15T12:45:56.218Z,23.01
2022-09-15T12:48:28.293Z,23.32
2022-09-15T12:50:59.396Z,23.11
2022-09-15T12:53:31.484Z,23.09
2022-09-15T12:56:01.992Z,23.06
2022-09-15T12:58:36.540Z,23.31
2022-09-15T13:01:33.040Z,23.43
2022-09-15T13:04:26.586Z,23.34
2022-09-15T13:07:33.986Z,23.21
2022-09-15T13:10:27.844Z,23.17
2022-09-15T13:13:14.681Z,23.39
2022-09-15T13:15:46.892Z,23.51
2022-09-15T13:18:17.239Z,23.63
2022-09-15T13:20:53.367Z,23.79
2022-09-15T13:23:25.957Z,23.80
2022-09-15T13:25:59.120Z,23.48
2022-09-15T13:28:28.471Z,23.28
2022-09-15T13:31:09.341Z,23.37
2022-09-15T13:40:47.063Z,23.46
2022-09-15T13:43:41.723Z,23.38
2022-09-15T13:46:23.040Z,23.24
2022-09-15T13:49:08.235Z,23.08
2022-09-15T13:51:40.514Z,23.26
2022-09-15T13:54:17.083Z,23.28
2022-09-15T13:56:46.870Z,23.05
2022-09-15T13:59:19.765Z,22.94
2022-09-15T14:01:48.287Z,22.84
2022-09-15T14:04:19.213Z,22.84
2022-09-15T14:06:50.258Z,22.71
2022-09-15T14:09:21.519Z,22.54
2022-09-15T14:11:52.281Z,22.55
2022-09-15T14:14:37.151Z,22.79
2022-09-15T14:17:05.776Z,22.64
2022-09-15T14:19:36.553Z,22.53
2022-09-15T14:22:26.219Z,22.34
2022-09-15T14:24:55.206Z,22.06
2022-09-15T14:27:25.933Z,21.95
2022-09-15T14:29:58.016Z,21.85
2022-09-15T14:32:28.023Z,21.82
2022-09-15T14:34:59.823Z,21.96
2022-09-15T14:37:31.704Z,22.25
2022-09-15T14:40:01.610Z,22.28
2022-09-15T14:42:32.640Z,22.26
2022-09-15T14:48:03.301Z,22.09
2022-09-15T14:50:33.589Z,21.99
2022-09-15T14:53:05.891Z,21.84
2022-09-15T14:55:40.224Z,21.90
2022-09-15T14:58:13.935Z,21.87
2022-09-15T15:00:52.062Z,21.63
2022-09-15T15:03:28.564Z,21.44
2022-09-15T15:06:25.330Z,21.39
2022-09-15T15:08:53.782Z,21.38
2022-09-15T15:11:23.305Z,21.29
2022-09-15T15:13:53.868Z,21.19
2022-09-15T15:16:26.138Z,21.03
2022-09-15T15:18:56.281Z,20.70
2022-09-15T15:21:48.241Z,20.67
2022-09-15T15:24:20.197Z,20.71
2022-09-15T15:26:49.974Z,20.77
2022-09-15T15:29:44.231Z,20.79
2022-09-15T15:32:16.463Z,20.82
2022-09-15T15:34:51.256Z,20.52
2022-09-15T15:37:27.386Z,20.48
2022-09-15T15:39:56.553Z,20.41
2022-09-15T15:42:25.766Z,20.43
2022-09-15T15:45:06.268Z,20.42
2022-09-15T15:47:38.380Z,20.46
2022-09-15T15:50:14.724Z,20.59
2022-09-15T15:52:43.957Z,20.68
2022-09-15T15:55:15.808Z,20.61
2022-09-15T15:57:45.441Z,20.48
2022-09-15T16:00:22.987Z,20.43
2022-09-15T16:02:54.609Z,20.43
2022-09-15T16:05:27.098Z,20.26
2022-09-15T16:07:57.303Z,20.24
2022-09-15T16:10:30.931Z,20.19
2022-09-15T16:12:59.677Z,20.15
2022-09-15T16:15:28.377Z,20.18
2022-09-15T16:17:58.054Z,20.20
2022-09-15T16:20:28.788Z,20.13
2022-09-15T16:22:57.100Z,20.02
2022-09-15T16:25:34.450Z,19.99
2022-09-15T16:28:04.164Z,19.95
2022-09-15T16:30:33.053Z,19.99
2022-09-15T16:33:02.907Z,20.01
2022-09-15T16:35:36.227Z,19.93
2022-09-15T16:38:04.759Z,19.91
2022-09-15T16:40:32.979Z,19.84
2022-09-15T16:43:01.980Z,19.78
2022-09-15T16:45:38.018Z,19.73
2022-09-15T16:48:12.749Z,19.69
2022-09-15T16:50:50.309Z,19.55
2022-09-15T16:53:31.026Z,19.48
2022-09-15T16:55:59.413Z,19.47
2022-09-15T16:58:28.201Z,19.43
2022-09-15T17:00:56.717Z,19.43
2022-09-15T17:03:27.779Z,19.40
2022-09-15T17:05:57.542Z,19.38
2022-09-15T17:08:29.556Z,19.36
2022-09-15T17:10:59.458Z,19.30
2022-09-15T17:13:30.372Z,19.19
2022-09-15T17:15:59.652Z,19.13
2022-09-15T17:18:30.808Z,19.09
2022-09-15T17:20:58.993Z,19.09
2022-09-15T17:23:28.966Z,19.05
2022-09-15T17:26:00.158Z,18.99
2022-09-15T17:28:30.393Z,18.95
2022-09-15T17:31:00.254Z,18.87
2022-09-15T17:33:31.238Z,18.76
2022-09-15T17:35:59.848Z,18.63
2022-09-15T17:38:28.306Z,18.57
2022-09-15T17:40:56.882Z,18.55
2022-09-15T17:43:28.476Z,18.57
2022-09-15T17:45:57.248Z,18.52
2022-09-15T17:48:25.716Z,18.51
2022-09-15T17:50:55.917Z,18.45
2022-09-15T17:53:27.698Z,18.38
2022-09-15T17:55:57.262Z,18.33
2022-09-15T17:58:26.731Z,18.28
2022-09-15T18:00:55.676Z,18.26
2022-09-15T18:03:28.224Z,18.25
2022-09-15T18:05:59.609Z,18.21
2022-09-15T18:08:29.010Z,18.19
2022-09-15T18:10:57.398Z,18.19
2022-09-15T18:13:27.690Z,18.20
2022-09-15T18:15:56.598Z,18.14
2022-09-15T18:18:26.581Z,18.10
2022-09-15T18:20:57.942Z,18.09
2022-09-15T18:23:29.626Z,18.07
2022-09-15T18:25:58.369Z,18.01
2022-09-15T18:28:26.625Z,17.98
2022-09-15T18:30:57.881Z,17.96
2022-09-15T18:33:27.557Z,17.89
2022-09-15T18:35:59.011Z,17.86
2022-09-15T18:38:29.022Z,17.85
2022-09-15T18:40:58.375Z,17.84
2022-09-15T18:43:28.716Z,17.83
2022-09-15T18:46:00.047Z,17.79
2022-09-15T18:48:29.117Z,17.80
2022-09-15T18:50:57.744Z,17.75
2022-09-15T18:53:26.322Z,17.63
2022-09-15T18:55:55.931Z,17.59
2022-09-15T18:58:24.152Z,17.51
2022-09-15T19:00:52.185Z,17.49
2022-09-15T19:03:20.592Z,17.48
2022-09-15T19:05:48.641Z,17.47
2022-09-15T19:08:17.043Z,17.40
2022-09-15T19:10:45.243Z,17.39
2022-09-15T19:13:15.902Z,17.42
2022-09-15T19:15:44.713Z,17.40
2022-09-15T19:18:13.119Z,17.38
2022-09-15T19:20:42.276Z,17.40
2022-09-15T19:23:10.813Z,17.36
2022-09-15T19:25:39.124Z,17.32
2022-09-15T19:28:07.264Z,17.29
2022-09-15T19:30:36.997Z,17.26
2022-09-15T19:33:05.666Z,17.21
2022-09-15T19:35:34.346Z,17.19
2022-09-15T19:38:03.009Z,17.21
2022-09-15T19:40:31.620Z,17.21
2022-09-15T19:42:59.828Z,17.23
2022-09-15T19:45:28.322Z,17.23
2022-09-15T19:47:58.588Z,17.22
2022-09-15T19:50:26.722Z,17.15
2022-09-15T19:52:58.963Z,17.08
2022-09-15T19:55:28.911Z,16.94
2022-09-15T19:57:57.972Z,16.87
2022-09-15T20:00:26.785Z,16.84
2022-09-15T20:02:55.038Z,16.85
2022-09-15T20:05:34.713Z,16.87
2022-09-15T20:08:03.814Z,16.89
2022-09-15T20:10:32.007Z,16.91
2022-09-15T20:13:05.566Z,16.91
2022-09-15T20:15:33.750Z,16.87
2022-09-15T20:18:02.290Z,16.85
2022-09-15T20:20:32.874Z,16.82
2022-09-15T20:23:01.123Z,16.76
2022-09-15T20:25:32.679Z,16.73
2022-09-15T20:28:01.206Z,16.67
2022-09-15T20:30:29.454Z,16.68
2022-09-15T20:32:58.311Z,16.68
2022-09-15T20:35:26.635Z,16.61
2022-09-15T20:37:56.245Z,16.58
2022-09-15T20:40:24.495Z,16.56
2022-09-15T20:42:53.150Z,16.56
2022-09-15T20:45:21.499Z,16.52
2022-09-15T20:48:05.184Z,16.46
2022-09-15T20:50:33.855Z,16.47
2022-09-15T20:53:03.643Z,16.43
2022-09-15T20:55:32.073Z,16.39
2022-09-15T20:58:00.508Z,16.35
2022-09-15T21:00:33.660Z,16.33
2022-09-15T21:03:02.350Z,16.33
2022-09-15T21:05:30.479Z,16.32
2022-09-15T21:07:58.745Z,16.30
2022-09-15T21:10:42.157Z,16.32
2022-09-15T21:13:10.421Z,16.31
2022-09-15T21:15:38.603Z,16.32
2022-09-15T21:18:06.957Z,16.33
2022-09-15T21:20:38.338Z,16.33
2022-09-15T21:23:12.532Z,16.30
2022-09-15T21:25:42.334Z,16.28
2022-09-15T21:28:10.670Z,16.27
2022-09-15T21:30:39.020Z,16.24
2022-09-15T21:33:13.483Z,16.21
2022-09-15T21:35:42.550Z,16.15
2022-09-15T21:38:11.318Z,16.08
2022-09-15T21:40:39.450Z,16.03
2022-09-15T21:43:10.627Z,16.00
2022-09-15T21:45:39.147Z,15.95
2022-09-15T21:48:07.430Z,15.92
2022-09-15T21:50:36.395Z,15.91
2022-09-15T21:53:05.053Z,15.88
2022-09-15T21:55:43.025Z,15.82
2022-09-15T21:58:12.552Z,15.80
2022-09-15T22:00:41.295Z,15.74
2022-09-15T22:03:10.877Z,15.72
2022-09-15T22:05:44.133Z,15.71
2022-09-15T22:08:21.754Z,15.65
2022-09-15T22:10:49.905Z,15.62
2022-09-15T22:13:19.333Z,15.63
2022-09-15T22:15:47.462Z,15.64
2022-09-15T22:18:15.466Z,15.66
2022-09-15T22:20:43.789Z,15.67
2022-09-15T22:23:11.874Z,15.66
2022-09-15T22:25:39.919Z,15.67
2022-09-15T22:28:07.988Z,15.69
2022-09-15T22:30:37.544Z,15.72
2022-09-15T22:33:05.682Z,15.70
2022-09-15T22:35:33.753Z,15.68
2022-09-15T22:38:01.794Z,15.64
2022-09-15T22:40:31.108Z,15.61
2022-09-15T22:43:02.368Z,15.54
2022-09-15T22:45:30.422Z,15.51
2022-09-15T22:48:00.273Z,15.49
2022-09-15T22:50:28.442Z,15.48
2022-09-15T22:52:56.831Z,15.42
2022-09-15T22:55:25.590Z,15.36
2022-09-15T22:57:53.787Z,15.33
2022-09-15T23:00:23.091Z,15.30
2022-09-15T23:02:51.949Z,15.26
2022-09-15T23:05:21.454Z,15.23
2022-09-15T23:07:49.502Z,15.21
2022-09-15T23:10:18.360Z,15.20
2022-09-15T23:12:46.465Z,15.17
2022-09-15T23:15:19.885Z,15.20
2022-09-15T23:17:48.195Z,15.17
2022-09-15T23:20:16.588Z,15.17
2022-09-15T23:22:45.948Z,15.16
2022-09-15T23:25:14.547Z,15.14
2022-09-15T23:27:52.122Z,15.13
2022-09-15T23:30:20.259Z,15.09
2022-09-15T23:32:48.354Z,15.10
2022-09-15T23:35:16.774Z,15.07
2022-09-15T23:37:46.246Z,15.06
2022-09-15T23:40:14.500Z,15.03
2022-09-15T23:42:42.614Z,15.04
2022-09-15T23:45:11.536Z,15.02
2022-09-15T23:47:39.845Z,14.98
2022-09-15T23:50:08.607Z,14.98
2022-09-15T23:52:39.965Z,14.94
2022-09-15T23:55:10.482Z,14.93
2022-09-15T23:57:38.699Z,14.91
